sensor_id;sensor_type;location;lat;lon;timestamp;temperature;humidity
108;DHT22;49;48.530;9.200;2022-10-15T00:01:03;19.70;7.50
108;DHT22;49;48.530;9.200;2022-10-15T00:03:31;19.70;7.10
108;DHT22;49;48.530;9.200;2022-10-15T00:06:03;19.80;6.30
108;DHT22;49;48.530;9.200;2022-10-15T00:11:04;19.80;7.70
108;DHT22;49;48.530;9.200;2022-10-15T00:13:32;19.80;8.00
108;DHT22;49;48.530;9.200;2022-10-15T00:16:00;19.50;9.00
108;DHT22;49;48.530;9.200;2022-10-15T00:18:27;19.40;9.00
108;DHT22;49;48.530;9.200;2022-10-15T00:20:54;19.50;9.00
108;DHT22;49;48.530;9.200;2022-10-15T00:23:21;19.50;8.80
108;DHT22;49;48.530;9.200;2022-10-15T00:25:48;19.40;9.10
108;DHT22;49;48.530;9.200;2022-10-15T00:28:15;19.50;8.90
108;DHT22;49;48.530;9.200;2022-10-15T00:30:42;19.50;8.70
108;DHT22;49;48.530;9.200;2022-10-15T00:33:10;19.60;7.50
108;DHT22;49;48.530;9.200;2022-10-15T00:35:37;19.70;7.70
108;DHT22;49;48.530;9.200;2022-10-15T00:38:04;20.00;6.50
108;DHT22;49;48.530;9.200;2022-10-15T00:40:30;19.90;6.20
108;DHT22;49;48.530;9.200;2022-10-15T00:42:57;19.80;7.50
108;DHT22;49;48.530;9.200;2022-10-15T00:45:24;19.90;7.10
108;DHT22;49;48.530;9.200;2022-10-15T00:47:53;19.80;7.80
108;DHT22;49;48.530;9.200;2022-10-15T00:50:24;19.70;8.10
108;DHT22;49;48.530;9.200;2022-10-15T00:52:59;19.40;9.40
108;DHT22;49;48.530;9.200;2022-10-15T00:55:29;19.40;10.30
108;DHT22;49;48.530;9.200;2022-10-15T00:58:00;19.30;9.90
108;DHT22;49;48.530;9.200;2022-10-15T01:00:28;19.50;10.30
108;DHT22;49;48.530;9.200;2022-10-15T01:02:55;19.50;9.70
108;DHT22;49;48.530;9.200;2022-10-15T01:05:23;19.70;9.40
108;DHT22;49;48.530;9.200;2022-10-15T01:07:50;19.70;8.60
108;DHT22;49;48.530;9.200;2022-10-15T01:10:18;19.70;8.90
108;DHT22;49;48.530;9.200;2022-10-15T01:12:56;19.50;9.40
108;DHT22;49;48.530;9.200;2022-10-15T01:15:28;19.70;9.20
108;DHT22;49;48.530;9.200;2022-10-15T01:18:05;19.80;8.70
108;DHT22;49;48.530;9.200;2022-10-15T01:20:52;19.70;9.00
108;DHT22;49;48.530;9.200;2022-10-15T01:26:56;19.40;9.80
108;DHT22;49;48.530;9.200;2022-10-15T01:29:43;19.20;11.20
108;DHT22;49;48.530;9.200;2022-10-15T01:32:19;19.00;11.80
108;DHT22;49;48.530;9.200;2022-10-15T01:34:53;19.20;11.60
108;DHT22;49;48.530;9.200;2022-10-15T01:37:29;19.40;11.20
108;DHT22;49;48.530;9.200;2022-10-15T01:40:05;19.70;10.40
108;DHT22;49;48.530;9.200;2022-10-15T01:42:39;19.50;10.40
108;DHT22;49;48.530;9.200;2022-10-15T01:45:11;19.50;10.10
108;DHT22;49;48.530;9.200;2022-10-15T01:47:45;19.50;10.20
108;DHT22;49;48.530;9.200;2022-10-15T01:50:16;19.60;10.10
108;DHT22;49;48.530;9.200;2022-10-15T01:52:44;19.80;9.50
108;DHT22;49;48.530;9.200;2022-10-15T01:55:14;19.90;9.00
108;DHT22;49;48.530;9.200;2022-10-15T01:57:44;20.00;8.30
108;DHT22;49;48.530;9.200;2022-10-15T02:00:12;19.90;7.80
108;DHT22;49;48.530;9.200;2022-10-15T02:02:40;19.80;8.90
108;DHT22;49;48.530;9.200;2022-10-15T02:05:12;20.00;7.60
108;DHT22;49;48.530;9.200;2022-10-15T02:07:48;19.60;9.40
108;DHT22;49;48.530;9.200;2022-10-15T02:10:22;19.40;10.90
108;DHT22;49;48.530;9.200;2022-10-15T02:13:01;19.10;12.20
108;DHT22;49;48.530;9.200;2022-10-15T02:15:36;18.90;13.70
108;DHT22;49;48.530;9.200;2022-10-15T02:18:16;18.80;14.00
108;DHT22;49;48.530;9.200;2022-10-15T02:20:50;18.60;15.20
108;DHT22;49;48.530;9.200;2022-10-15T02:23:21;18.30;16.20
108;DHT22;49;48.530;9.200;2022-10-15T02:25:50;17.80;19.50
108;DHT22;49;48.530;9.200;2022-10-15T02:28:17;17.80;20.40
108;DHT22;49;48.530;9.200;2022-10-15T02:30:48;18.10;19.60
108;DHT22;49;48.530;9.200;2022-10-15T02:33:19;18.10;18.60
108;DHT22;49;48.530;9.200;2022-10-15T02:35:50;17.80;20.70
108;DHT22;49;48.530;9.200;2022-10-15T02:38:20;17.80;20.90
108;DHT22;49;48.530;9.200;2022-10-15T02:40:50;18.00;20.10
108;DHT22;49;48.530;9.200;2022-10-15T02:43:19;18.40;18.00
108;DHT22;49;48.530;9.200;2022-10-15T02:45:48;18.70;16.50
108;DHT22;49;48.530;9.200;2022-10-15T02:48:15;19.00;15.70
108;DHT22;49;48.530;9.200;2022-10-15T02:50:43;19.10;14.70
108;DHT22;49;48.530;9.200;2022-10-15T02:53:10;18.80;14.90
108;DHT22;49;48.530;9.200;2022-10-15T02:55:37;18.50;16.30
108;DHT22;49;48.530;9.200;2022-10-15T02:58:04;18.70;16.40
108;DHT22;49;48.530;9.200;2022-10-15T03:00:31;18.90;15.10
108;DHT22;49;48.530;9.200;2022-10-15T03:02:57;18.70;16.20
108;DHT22;49;48.530;9.200;2022-10-15T03:05:24;18.70;16.40
108;DHT22;49;48.530;9.200;2022-10-15T03:07:58;18.70;16.50
108;DHT22;49;48.530;9.200;2022-10-15T03:10:25;18.90;15.40
108;DHT22;49;48.530;9.200;2022-10-15T03:12:52;19.00;14.70
108;DHT22;49;48.530;9.200;2022-10-15T03:15:19;19.00;13.80
108;DHT22;49;48.530;9.200;2022-10-15T03:17:46;18.80;15.20
108;DHT22;49;48.530;9.200;2022-10-15T03:20:13;18.50;15.90
108;DHT22;49;48.530;9.200;2022-10-15T03:22:39;18.50;16.30
108;DHT22;49;48.530;9.200;2022-10-15T03:25:08;18.40;16.20
108;DHT22;49;48.530;9.200;2022-10-15T03:27:35;18.40;16.50
108;DHT22;49;48.530;9.200;2022-10-15T03:30:03;18.40;17.50
108;DHT22;49;48.530;9.200;2022-10-15T03:32:30;18.40;17.30
108;DHT22;49;48.530;9.200;2022-10-15T03:34:57;18.40;17.20
108;DHT22;49;48.530;9.200;2022-10-15T03:37:24;18.30;16.50
108;DHT22;49;48.530;9.200;2022-10-15T03:39:50;18.00;18.20
108;DHT22;49;48.530;9.200;2022-10-15T03:42:19;17.70;20.40
108;DHT22;49;48.530;9.200;2022-10-15T03:44:45;17.70;20.20
108;DHT22;49;48.530;9.200;2022-10-15T03:47:12;17.50;21.50
108;DHT22;49;48.530;9.200;2022-10-15T03:49:39;17.50;21.80
108;DHT22;49;48.530;9.200;2022-10-15T03:52:06;17.40;23.10
108;DHT22;49;48.530;9.200;2022-10-15T03:54:33;17.40;21.90
108;DHT22;49;48.530;9.200;2022-10-15T03:57:00;17.50;22.30
108;DHT22;49;48.530;9.200;2022-10-15T03:59:28;17.50;21.80
108;DHT22;49;48.530;9.200;2022-10-15T04:01:55;17.50;22.10
108;DHT22;49;48.530;9.200;2022-10-15T04:04:22;17.60;22.30
108;DHT22;49;48.530;9.200;2022-10-15T04:06:49;17.80;20.50
108;DHT22;49;48.530;9.200;2022-10-15T04:09:16;18.00;20.40
108;DHT22;49;48.530;9.200;2022-10-15T04:11:43;18.00;18.70
108;DHT22;49;48.530;9.200;2022-10-15T04:14:10;18.30;17.60
108;DHT22;49;48.530;9.200;2022-10-15T04:16:38;18.20;17.60
108;DHT22;49;48.530;9.200;2022-10-15T04:19:05;18.00;17.90
108;DHT22;49;48.530;9.200;2022-10-15T04:21:32;17.90;18.60
108;DHT22;49;48.530;9.200;2022-10-15T04:23:58;17.90;19.50
108;DHT22;49;48.530;9.200;2022-10-15T04:26:25;17.90;18.30
108;DHT22;49;48.530;9.200;2022-10-15T04:28:53;18.20;17.50
108;DHT22;49;48.530;9.200;2022-10-15T04:31:20;18.50;15.60
108;DHT22;49;48.530;9.200;2022-10-15T04:33:48;18.30;16.10
108;DHT22;49;48.530;9.200;2022-10-15T04:36:16;18.10;17.00
108;DHT22;49;48.530;9.200;2022-10-15T04:38:43;18.10;16.20
108;DHT22;49;48.530;9.200;2022-10-15T04:41:11;18.20;16.10
108;DHT22;49;48.530;9.200;2022-10-15T04:43:38;18.30;15.40
108;DHT22;49;48.530;9.200;2022-10-15T04:46:07;18.20;16.10
108;DHT22;49;48.530;9.200;2022-10-15T04:48:35;18.10;16.00
108;DHT22;49;48.530;9.200;2022-10-15T04:51:06;18.10;17.00
108;DHT22;49;48.530;9.200;2022-10-15T04:53:33;18.20;16.10
108;DHT22;49;48.530;9.200;2022-10-15T04:56:02;18.10;15.90
108;DHT22;49;48.530;9.200;2022-10-15T04:58:30;18.00;15.90
108;DHT22;49;48.530;9.200;2022-10-15T05:00:59;18.10;16.00
108;DHT22;49;48.530;9.200;2022-10-15T05:03:27;18.10;15.90
108;DHT22;49;48.530;9.200;2022-10-15T05:05:59;18.20;15.10
108;DHT22;49;48.530;9.200;2022-10-15T05:08:28;17.90;15.80
108;DHT22;49;48.530;9.200;2022-10-15T05:10:59;17.90;16.70
108;DHT22;49;48.530;9.200;2022-10-15T05:13:27;18.00;15.90
108;DHT22;49;48.530;9.200;2022-10-15T05:15:54;18.00;15.90
108;DHT22;49;48.530;9.200;2022-10-15T05:18:21;17.80;16.00
108;DHT22;49;48.530;9.200;2022-10-15T05:20:48;17.80;16.30
108;DHT22;49;48.530;9.200;2022-10-15T05:23:15;17.80;16.60
108;DHT22;49;48.530;9.200;2022-10-15T05:25:43;17.80;15.80
108;DHT22;49;48.530;9.200;2022-10-15T05:28:10;17.70;16.20
108;DHT22;49;48.530;9.200;2022-10-15T05:30:37;17.80;15.90
108;DHT22;49;48.530;9.200;2022-10-15T05:33:04;17.90;15.90
108;DHT22;49;48.530;9.200;2022-10-15T05:35:31;17.80;16.00
108;DHT22;49;48.530;9.200;2022-10-15T05:37:57;17.70;16.40
108;DHT22;49;48.530;9.200;2022-10-15T05:40:24;17.70;17.00
108;DHT22;49;48.530;9.200;2022-10-15T05:42:52;17.50;16.90
108;DHT22;49;48.530;9.200;2022-10-15T05:45:19;17.50;17.90
108;DHT22;49;48.530;9.200;2022-10-15T05:47:46;17.40;17.70
108;DHT22;49;48.530;9.200;2022-10-15T05:50:14;17.30;18.90
108;DHT22;49;48.530;9.200;2022-10-15T05:52:41;17.50;17.90
108;DHT22;49;48.530;9.200;2022-10-15T05:55:08;17.60;17.00
108;DHT22;49;48.530;9.200;2022-10-15T05:57:35;17.40;18.20
108;DHT22;49;48.530;9.200;2022-10-15T06:00:04;17.40;17.90
108;DHT22;49;48.530;9.200;2022-10-15T06:02:31;17.30;17.70
108;DHT22;49;48.530;9.200;2022-10-15T06:05:00;17.30;18.50
108;DHT22;49;48.530;9.200;2022-10-15T06:07:28;17.50;17.80
108;DHT22;49;48.530;9.200;2022-10-15T06:09:56;17.50;17.00
108;DHT22;49;48.530;9.200;2022-10-15T06:12:23;17.50;16.90
108;DHT22;49;48.530;9.200;2022-10-15T06:14:50;17.70;15.90
108;DHT22;49;48.530;9.200;2022-10-15T06:17:18;17.70;15.70
108;DHT22;49;48.530;9.200;2022-10-15T06:19:45;17.90;15.80
108;DHT22;49;48.530;9.200;2022-10-15T06:22:13;18.00;14.80
108;DHT22;49;48.530;9.200;2022-10-15T06:24:39;17.80;15.80
108;DHT22;49;48.530;9.200;2022-10-15T06:27:06;17.60;15.90
108;DHT22;49;48.530;9.200;2022-10-15T06:29:34;17.70;15.90
108;DHT22;49;48.530;9.200;2022-10-15T06:32:15;17.80;15.80
108;DHT22;49;48.530;9.200;2022-10-15T06:34:45;18.00;14.70
108;DHT22;49;48.530;9.200;2022-10-15T06:37:15;17.90;14.90
108;DHT22;49;48.530;9.200;2022-10-15T06:39:42;17.80;15.70
108;DHT22;49;48.530;9.200;2022-10-15T06:42:11;17.90;15.80
108;DHT22;49;48.530;9.200;2022-10-15T06:44:38;18.00;15.80
108;DHT22;49;48.530;9.200;2022-10-15T06:47:05;17.80;15.80
108;DHT22;49;48.530;9.200;2022-10-15T06:49:32;17.90;15.90
108;DHT22;49;48.530;9.200;2022-10-15T06:52:00;18.00;15.40
108;DHT22;49;48.530;9.200;2022-10-15T06:54:27;18.20;14.80
108;DHT22;49;48.530;9.200;2022-10-15T06:56:54;18.20;14.60
108;DHT22;49;48.530;9.200;2022-10-15T06:59:21;18.10;15.70
108;DHT22;49;48.530;9.200;2022-10-15T07:01:48;18.00;15.80
108;DHT22;49;48.530;9.200;2022-10-15T07:04:15;17.80;16.10
108;DHT22;49;48.530;9.200;2022-10-15T07:06:42;17.70;18.40
108;DHT22;49;48.530;9.200;2022-10-15T07:09:10;17.60;18.80
108;DHT22;49;48.530;9.200;2022-10-15T07:11:37;17.80;18.20
108;DHT22;49;48.530;9.200;2022-10-15T07:14:04;18.10;16.30
108;DHT22;49;48.530;9.200;2022-10-15T07:16:31;18.20;16.10
108;DHT22;49;48.530;9.200;2022-10-15T07:18:58;18.20;16.10
108;DHT22;49;48.530;9.200;2022-10-15T07:21:24;18.00;17.20
108;DHT22;49;48.530;9.200;2022-10-15T07:23:51;18.20;16.80
108;DHT22;49;48.530;9.200;2022-10-15T07:26:20;18.20;16.10
108;DHT22;49;48.530;9.200;2022-10-15T07:28:46;18.20;17.00
108;DHT22;49;48.530;9.200;2022-10-15T07:31:14;18.20;18.10
108;DHT22;49;48.530;9.200;2022-10-15T07:33:41;18.00;19.50
108;DHT22;49;48.530;9.200;2022-10-15T07:36:09;18.30;19.20
108;DHT22;49;48.530;9.200;2022-10-15T07:38:37;18.70;17.90
108;DHT22;49;48.530;9.200;2022-10-15T07:41:06;19.20;15.30
108;DHT22;49;48.530;9.200;2022-10-15T07:43:35;19.40;13.90
108;DHT22;49;48.530;9.200;2022-10-15T07:46:03;19.50;13.80
108;DHT22;49;48.530;9.200;2022-10-15T07:48:30;19.60;13.00
108;DHT22;49;48.530;9.200;2022-10-15T07:51:00;19.90;11.90
108;DHT22;49;48.530;9.200;2022-10-15T07:53:27;19.90;11.80
108;DHT22;49;48.530;9.200;2022-10-15T07:55:58;19.90;12.30
108;DHT22;49;48.530;9.200;2022-10-15T07:58:25;20.20;11.00
108;DHT22;49;48.530;9.200;2022-10-15T08:06:04;20.50;10.00
108;DHT22;49;48.530;9.200;2022-10-15T08:20:14;20.00;11.50
108;DHT22;49;48.530;9.200;2022-10-15T08:22:44;19.90;11.20
108;DHT22;49;48.530;9.200;2022-10-15T08:25:24;19.60;12.00
108;DHT22;49;48.530;9.200;2022-10-15T08:28:01;19.70;12.70
108;DHT22;49;48.530;9.200;2022-10-15T08:30:27;19.60;13.10
108;DHT22;49;48.530;9.200;2022-10-15T08:32:54;19.70;13.50
108;DHT22;49;48.530;9.200;2022-10-15T08:35:22;19.50;14.30
108;DHT22;49;48.530;9.200;2022-10-15T08:37:52;19.30;14.50
108;DHT22;49;48.530;9.200;2022-10-15T08:40:20;19.30;14.50
108;DHT22;49;48.530;9.200;2022-10-15T08:42:48;19.60;14.10
108;DHT22;49;48.530;9.200;2022-10-15T08:45:18;20.00;12.70
108;DHT22;49;48.530;9.200;2022-10-15T08:47:54;20.40;11.30
108;DHT22;49;48.530;9.200;2022-10-15T08:50:30;20.90;9.20
108;DHT22;49;48.530;9.200;2022-10-15T08:53:01;21.10;7.00
108;DHT22;49;48.530;9.200;2022-10-15T08:55:34;21.10;7.00
108;DHT22;49;48.530;9.200;2022-10-15T08:58:11;21.40;6.90
108;DHT22;49;48.530;9.200;2022-10-15T09:00:43;21.90;5.60
108;DHT22;49;48.530;9.200;2022-10-15T09:03:26;22.00;5.30
108;DHT22;49;48.530;9.200;2022-10-15T09:06:03;22.10;5.00
108;DHT22;49;48.530;9.200;2022-10-15T09:08:41;22.00;3.20
108;DHT22;49;48.530;9.200;2022-10-15T09:11:16;21.90;5.30
108;DHT22;49;48.530;9.200;2022-10-15T09:13:46;21.80;4.40
108;DHT22;49;48.530;9.200;2022-10-15T09:16:16;21.60;3.90
108;DHT22;49;48.530;9.200;2022-10-15T09:18:46;21.40;3.50
108;DHT22;49;48.530;9.200;2022-10-15T09:21:13;21.00;4.00
108;DHT22;49;48.530;9.200;2022-10-15T09:23:42;20.90;5.20
108;DHT22;49;48.530;9.200;2022-10-15T09:26:21;20.80;4.70
108;DHT22;49;48.530;9.200;2022-10-15T09:28:57;21.10;5.20
108;DHT22;49;48.530;9.200;2022-10-15T09:31:30;20.50;6.40
108;DHT22;49;48.530;9.200;2022-10-15T09:34:04;20.40;5.60
108;DHT22;49;48.530;9.200;2022-10-15T09:36:38;20.60;6.30
108;DHT22;49;48.530;9.200;2022-10-15T09:39:31;20.80;7.20
108;DHT22;49;48.530;9.200;2022-10-15T09:42:12;21.00;5.00
108;DHT22;49;48.530;9.200;2022-10-15T09:44:44;21.20;3.20
108;DHT22;49;48.530;9.200;2022-10-15T09:47:21;21.50;2.90
108;DHT22;49;48.530;9.200;2022-10-15T09:49:48;21.50;1.50
108;DHT22;49;48.530;9.200;2022-10-15T09:52:23;21.00;1.80
108;DHT22;49;48.530;9.200;2022-10-15T09:55:01;21.10;1.50
108;DHT22;49;48.530;9.200;2022-10-15T09:57:31;20.70;2.50
108;DHT22;49;48.530;9.200;2022-10-15T10:00:00;20.30;3.30
108;DHT22;49;48.530;9.200;2022-10-15T10:02:28;20.20;3.20
108;DHT22;49;48.530;9.200;2022-10-15T10:04:56;20.30;4.50
108;DHT22;49;48.530;9.200;2022-10-15T10:07:31;20.80;3.60
108;DHT22;49;48.530;9.200;2022-10-15T10:10:03;21.00;2.10
108;DHT22;49;48.530;9.200;2022-10-15T10:12:33;20.90;2.70
108;DHT22;49;48.530;9.200;2022-10-15T10:15:04;20.70;1.80
108;DHT22;49;48.530;9.200;2022-10-15T10:17:34;20.50;1.10
108;DHT22;49;48.530;9.200;2022-10-15T10:20:14;20.40;1.20
108;DHT22;49;48.530;9.200;2022-10-15T10:22:43;20.20;2.10
108;DHT22;49;48.530;9.200;2022-10-15T10:25:29;20.20;2.70
108;DHT22;49;48.530;9.200;2022-10-15T10:28:04;20.00;1.90
108;DHT22;49;48.530;9.200;2022-10-15T10:30:34;20.30;2.30
108;DHT22;49;48.530;9.200;2022-10-15T10:33:02;20.70;3.10
108;DHT22;49;48.530;9.200;2022-10-15T10:35:35;21.30;1.00
108;DHT22;49;48.530;9.200;2022-10-15T10:38:18;21.30;1.00
108;DHT22;49;48.530;9.200;2022-10-15T10:40:49;21.40;1.00
108;DHT22;49;48.530;9.200;2022-10-15T10:43:20;21.40;1.00
108;DHT22;49;48.530;9.200;2022-10-15T10:45:53;21.50;1.00
108;DHT22;49;48.530;9.200;2022-10-15T10:48:23;21.00;1.00
108;DHT22;49;48.530;9.200;2022-10-15T10:51:06;20.80;1.00
108;DHT22;49;48.530;9.200;2022-10-15T10:53:36;21.10;1.00
108;DHT22;49;48.530;9.200;2022-10-15T10:56:08;21.40;1.00
108;DHT22;49;48.530;9.200;2022-10-15T10:58:38;21.70;1.00
108;DHT22;49;48.530;9.200;2022-10-15T11:01:05;22.00;1.00
108;DHT22;49;48.530;9.200;2022-10-15T11:03:34;22.20;1.00
108;DHT22;49;48.530;9.200;2022-10-15T11:06:25;22.10;1.00
108;DHT22;49;48.530;9.200;2022-10-15T11:12:09;22.00;1.00
108;DHT22;49;48.530;9.200;2022-10-15T11:14:48;21.60;1.00
108;DHT22;49;48.530;9.200;2022-10-15T11:17:26;21.30;1.00
108;DHT22;49;48.530;9.200;2022-10-15T11:20:02;21.10;1.00
108;DHT22;49;48.530;9.200;2022-10-15T11:22:55;21.10;1.00
108;DHT22;49;48.530;9.200;2022-10-15T11:25:33;21.40;1.00
108;DHT22;49;48.530;9.200;2022-10-15T11:28:26;21.60;1.00
108;DHT22;49;48.530;9.200;2022-10-15T11:31:02;21.40;1.00
108;DHT22;49;48.530;9.200;2022-10-15T11:33:42;21.20;1.00
108;DHT22;49;48.530;9.200;2022-10-15T11:36:39;21.20;1.00
108;DHT22;49;48.530;9.200;2022-10-15T11:39:27;21.50;1.00
108;DHT22;49;48.530;9.200;2022-10-15T11:42:06;21.80;1.00
108;DHT22;49;48.530;9.200;2022-10-15T11:47:44;22.20;1.00
108;DHT22;49;48.530;9.200;2022-10-15T11:50:27;22.20;1.00
108;DHT22;49;48.530;9.200;2022-10-15T11:56:00;21.10;1.00
108;DHT22;49;48.530;9.200;2022-10-15T11:58:32;21.00;1.00
108;DHT22;49;48.530;9.200;2022-10-15T12:01:08;21.40;1.00
108;DHT22;49;48.530;9.200;2022-10-15T12:03:44;21.10;1.00
108;DHT22;49;48.530;9.200;2022-10-15T12:06:16;21.30;1.00
108;DHT22;49;48.530;9.200;2022-10-15T12:08:46;22.10;1.00
108;DHT22;49;48.530;9.200;2022-10-15T12:11:26;22.80;1.00
108;DHT22;49;48.530;9.200;2022-10-15T12:13:59;22.60;1.00
108;DHT22;49;48.530;9.200;2022-10-15T12:16:38;22.10;1.00
108;DHT22;49;48.530;9.200;2022-10-15T12:19:16;22.30;1.00
108;DHT22;49;48.530;9.200;2022-10-15T12:22:01;22.10;1.00
108;DHT22;49;48.530;9.200;2022-10-15T12:24:52;21.90;1.00
108;DHT22;49;48.530;9.200;2022-10-15T12:27:27;22.10;1.00
108;DHT22;49;48.530;9.200;2022-10-15T12:30:19;22.10;1.00
108;DHT22;49;48.530;9.200;2022-10-15T12:32:49;22.20;1.00
108;DHT22;49;48.530;9.200;2022-10-15T12:35:34;22.60;1.00
108;DHT22;49;48.530;9.200;2022-10-15T12:38:17;22.40;1.00
108;DHT22;49;48.530;9.200;2022-10-15T12:40:47;22.30;1.00
108;DHT22;49;48.530;9.200;2022-10-15T12:43:20;22.80;1.00
108;DHT22;49;48.530;9.200;2022-10-15T12:45:50;22.60;1.00
108;DHT22;49;48.530;9.200;2022-10-15T12:48:28;22.70;1.00
108;DHT22;49;48.530;9.200;2022-10-15T12:54:37;22.70;1.00
108;DHT22;49;48.530;9.200;2022-10-15T13:00:28;22.80;1.00
108;DHT22;49;48.530;9.200;2022-10-15T13:02:57;22.20;1.00
108;DHT22;49;48.530;9.200;2022-10-15T13:05:36;21.70;1.00
108;DHT22;49;48.530;9.200;2022-10-15T13:08:11;21.60;1.00
108;DHT22;49;48.530;9.200;2022-10-15T13:10:41;21.60;1.00
108;DHT22;49;48.530;9.200;2022-10-15T13:13:14;22.00;1.00
108;DHT22;49;48.530;9.200;2022-10-15T13:15:50;22.10;1.00
108;DHT22;49;48.530;9.200;2022-10-15T13:18:17;22.10;1.00
108;DHT22;49;48.530;9.200;2022-10-15T13:20:49;21.90;1.00
108;DHT22;49;48.530;9.200;2022-10-15T13:23:21;21.80;1.00
108;DHT22;49;48.530;9.200;2022-10-15T13:25:50;21.90;1.00
108;DHT22;49;48.530;9.200;2022-10-15T13:28:31;22.00;1.00
108;DHT22;49;48.530;9.200;2022-10-15T13:30:59;22.00;1.00
108;DHT22;49;48.530;9.200;2022-10-15T13:33:28;22.40;1.00
108;DHT22;49;48.530;9.200;2022-10-15T13:36:04;22.60;1.00
108;DHT22;49;48.530;9.200;2022-10-15T13:38:30;21.80;1.00
108;DHT22;49;48.530;9.200;2022-10-15T13:40:59;21.60;1.00
108;DHT22;49;48.530;9.200;2022-10-15T13:43:26;21.50;1.00
108;DHT22;49;48.530;9.200;2022-10-15T13:45:56;21.60;1.00
108;DHT22;49;48.530;9.200;2022-10-15T13:48:26;21.50;1.00
108;DHT22;49;48.530;9.200;2022-10-15T13:50:57;21.70;1.00
108;DHT22;49;48.530;9.200;2022-10-15T13:53:28;21.70;1.00
108;DHT22;49;48.530;9.200;2022-10-15T13:55:57;21.90;1.00
108;DHT22;49;48.530;9.200;2022-10-15T13:58:26;22.20;1.00
108;DHT22;49;48.530;9.200;2022-10-15T14:00:57;22.40;1.00
108;DHT22;49;48.530;9.200;2022-10-15T14:03:26;22.60;1.00
108;DHT22;49;48.530;9.200;2022-10-15T14:05:57;22.60;1.00
108;DHT22;49;48.530;9.200;2022-10-15T14:08:27;22.20;1.00
108;DHT22;49;48.530;9.200;2022-10-15T14:10:57;22.00;1.00
108;DHT22;49;48.530;9.200;2022-10-15T14:13:24;21.70;1.00
108;DHT22;49;48.530;9.200;2022-10-15T14:16:12;21.50;1.00
108;DHT22;49;48.530;9.200;2022-10-15T14:18:43;21.60;1.00
108;DHT22;49;48.530;9.200;2022-10-15T14:21:13;21.60;1.00
108;DHT22;49;48.530;9.200;2022-10-15T14:23:44;21.50;1.00
108;DHT22;49;48.530;9.200;2022-10-15T14:26:12;21.30;1.00
108;DHT22;49;48.530;9.200;2022-10-15T14:28:47;21.20;1.00
108;DHT22;49;48.530;9.200;2022-10-15T14:31:29;21.10;1.00
108;DHT22;49;48.530;9.200;2022-10-15T14:33:56;21.20;1.00
108;DHT22;49;48.530;9.200;2022-10-15T14:36:27;21.40;1.00
108;DHT22;49;48.530;9.200;2022-10-15T14:39:21;21.60;1.00
108;DHT22;49;48.530;9.200;2022-10-15T14:41:55;21.40;1.00
108;DHT22;49;48.530;9.200;2022-10-15T14:44:22;21.00;1.00
108;DHT22;49;48.530;9.200;2022-10-15T14:46:52;21.20;1.00
108;DHT22;49;48.530;9.200;2022-10-15T14:49:28;20.90;1.00
108;DHT22;49;48.530;9.200;2022-10-15T14:52:02;20.90;1.00
108;DHT22;49;48.530;9.200;2022-10-15T14:54:34;21.10;1.00
108;DHT22;49;48.530;9.200;2022-10-15T14:57:02;21.10;1.00
108;DHT22;49;48.530;9.200;2022-10-15T14:59:31;21.00;1.00
108;DHT22;49;48.530;9.200;2022-10-15T15:02:01;20.70;1.00
108;DHT22;49;48.530;9.200;2022-10-15T15:04:35;21.00;1.00
108;DHT22;49;48.530;9.200;2022-10-15T15:07:09;21.20;1.00
108;DHT22;49;48.530;9.200;2022-10-15T15:09:37;21.20;1.00
108;DHT22;49;48.530;9.200;2022-10-15T15:12:07;21.50;1.00
108;DHT22;49;48.530;9.200;2022-10-15T15:14:36;21.70;1.00
108;DHT22;49;48.530;9.200;2022-10-15T15:17:02;21.60;1.00
108;DHT22;49;48.530;9.200;2022-10-15T15:19:29;21.50;1.00
108;DHT22;49;48.530;9.200;2022-10-15T15:21:56;21.30;1.00
108;DHT22;49;48.530;9.200;2022-10-15T15:24:25;21.10;1.00
108;DHT22;49;48.530;9.200;2022-10-15T15:26:52;21.10;1.00
108;DHT22;49;48.530;9.200;2022-10-15T15:29:18;21.10;1.00
108;DHT22;49;48.530;9.200;2022-10-15T15:31:47;21.30;1.00
108;DHT22;49;48.530;9.200;2022-10-15T15:34:13;21.30;1.00
108;DHT22;49;48.530;9.200;2022-10-15T15:36:40;21.10;1.00
108;DHT22;49;48.530;9.200;2022-10-15T15:39:07;21.10;1.00
108;DHT22;49;48.530;9.200;2022-10-15T15:41:35;20.90;1.00
108;DHT22;49;48.530;9.200;2022-10-15T15:44:02;20.90;1.00
108;DHT22;49;48.530;9.200;2022-10-15T15:46:30;20.90;1.00
108;DHT22;49;48.530;9.200;2022-10-15T15:48:57;21.40;1.00
108;DHT22;49;48.530;9.200;2022-10-15T15:51:26;21.60;1.00
108;DHT22;49;48.530;9.200;2022-10-15T15:53:54;22.00;1.00
108;DHT22;49;48.530;9.200;2022-10-15T15:56:21;22.00;1.00
108;DHT22;49;48.530;9.200;2022-10-15T15:58:49;22.10;1.00
108;DHT22;49;48.530;9.200;2022-10-15T16:01:17;22.00;1.00
108;DHT22;49;48.530;9.200;2022-10-15T16:03:44;21.70;1.00
108;DHT22;49;48.530;9.200;2022-10-15T16:06:11;21.40;1.00
108;DHT22;49;48.530;9.200;2022-10-15T16:08:38;21.20;1.00
108;DHT22;49;48.530;9.200;2022-10-15T16:11:05;21.10;1.00
108;DHT22;49;48.530;9.200;2022-10-15T16:13:33;21.00;1.00
108;DHT22;49;48.530;9.200;2022-10-15T16:16:02;21.10;1.00
108;DHT22;49;48.530;9.200;2022-10-15T16:18:29;21.30;1.00
108;DHT22;49;48.530;9.200;2022-10-15T16:20:56;21.50;1.00
108;DHT22;49;48.530;9.200;2022-10-15T16:23:23;21.50;1.00
108;DHT22;49;48.530;9.200;2022-10-15T16:25:50;21.60;1.00
108;DHT22;49;48.530;9.200;2022-10-15T16:28:19;21.20;1.00
108;DHT22;49;48.530;9.200;2022-10-15T16:30:45;21.20;1.00
108;DHT22;49;48.530;9.200;2022-10-15T16:33:14;21.30;1.00
108;DHT22;49;48.530;9.200;2022-10-15T16:35:41;21.10;1.00
108;DHT22;49;48.530;9.200;2022-10-15T16:38:08;21.10;1.00
108;DHT22;49;48.530;9.200;2022-10-15T16:40:35;21.10;1.00
108;DHT22;49;48.530;9.200;2022-10-15T16:43:01;21.20;1.00
108;DHT22;49;48.530;9.200;2022-10-15T16:45:28;21.30;1.00
108;DHT22;49;48.530;9.200;2022-10-15T16:47:55;21.00;1.00
108;DHT22;49;48.530;9.200;2022-10-15T16:50:24;20.90;1.00
108;DHT22;49;48.530;9.200;2022-10-15T16:52:50;21.20;1.00
108;DHT22;49;48.530;9.200;2022-10-15T16:55:17;21.30;1.00
108;DHT22;49;48.530;9.200;2022-10-15T16:57:44;21.30;1.00
108;DHT22;49;48.530;9.200;2022-10-15T17:00:11;21.20;1.00
108;DHT22;49;48.530;9.200;2022-10-15T17:02:38;20.90;1.00
108;DHT22;49;48.530;9.200;2022-10-15T17:05:06;20.70;1.00
108;DHT22;49;48.530;9.200;2022-10-15T17:07:35;20.80;1.00
108;DHT22;49;48.530;9.200;2022-10-15T17:10:02;20.70;1.00
108;DHT22;49;48.530;9.200;2022-10-15T17:12:29;20.50;1.00
108;DHT22;49;48.530;9.200;2022-10-15T17:14:56;20.50;1.00
108;DHT22;49;48.530;9.200;2022-10-15T17:17:23;20.30;1.00
108;DHT22;49;48.530;9.200;2022-10-15T17:19:49;20.20;1.00
108;DHT22;49;48.530;9.200;2022-10-15T17:22:16;19.90;1.60
108;DHT22;49;48.530;9.200;2022-10-15T17:24:47;20.00;1.40
108;DHT22;49;48.530;9.200;2022-10-15T17:27:14;20.20;1.10
108;DHT22;49;48.530;9.200;2022-10-15T17:29:41;20.00;1.20
108;DHT22;49;48.530;9.200;2022-10-15T17:32:09;20.10;1.00
108;DHT22;49;48.530;9.200;2022-10-15T17:34:35;20.30;1.00
108;DHT22;49;48.530;9.200;2022-10-15T17:37:02;20.60;1.00
108;DHT22;49;48.530;9.200;2022-10-15T17:39:29;20.70;1.00
108;DHT22;49;48.530;9.200;2022-10-15T17:41:57;20.50;1.00
108;DHT22;49;48.530;9.200;2022-10-15T17:44:25;20.70;1.00
108;DHT22;49;48.530;9.200;2022-10-15T17:46:52;20.60;1.00
108;DHT22;49;48.530;9.200;2022-10-15T17:49:19;20.60;1.00
108;DHT22;49;48.530;9.200;2022-10-15T17:51:46;20.50;1.00
108;DHT22;49;48.530;9.200;2022-10-15T17:54:13;20.60;1.00
108;DHT22;49;48.530;9.200;2022-10-15T17:56:40;20.60;1.00
108;DHT22;49;48.530;9.200;2022-10-15T17:59:11;20.70;1.00
108;DHT22;49;48.530;9.200;2022-10-15T18:01:39;20.70;1.00